This is the latest recevied weather packets stored in our database for station/object F6BIJ-13. If no packets are shown the sender has not sent any weather packets the latest 10 day(s).
| Time | Temp. | Humidity | Pressure | Rain* | Wind** | Luminosity | Snow |
|---|---|---|---|---|---|---|---|
| 1777715317 | 21.11° C | 55% | 1023.1 hPa | 0 mm | - | - | - |
| 1777714957 | 20.56° C | 57% | 1023.1 hPa | 0 mm | - | - | - |
| 1777714597 | 22.22° C | 54% | 1023.2 hPa | 0 mm | - | - | - |
| 1777714237 | 20.56° C | 58% | 1023.3 hPa | 0 mm | - | - | - |
| 1777713877 | 20.56° C | 53% | 1023.4 hPa | 0 mm | - | - | - |
| 1777713517 | 20.56° C | 54% | 1023.4 hPa | 0 mm | - | - | - |
| 1777713157 | 21.11° C | 55% | 1023.4 hPa | 0 mm | - | - | - |
| 1777712797 | 20.56° C | 55% | 1023.4 hPa | 0 mm | - | - | - |
| 1777712437 | 22.22° C | 54% | 1023.4 hPa | 0 mm | - | - | - |
| 1777712077 | 20.56° C | 57% | 1023.4 hPa | 0 mm | - | - | - |
| 1777711717 | 22.22° C | 53% | 1023.5 hPa | 0 mm | - | - | - |
| 1777711357 | 20° C | 56% | 1023.6 hPa | 0 mm | - | - | - |
| 1777710997 | 19.44° C | 58% | 1023.5 hPa | 0 mm | - | - | - |
| 1777710637 | 19.44° C | 57% | 1023.6 hPa | 0 mm | - | - | - |
| 1777710277 | 18.89° C | 57% | 1023.6 hPa | 0 mm | - | - | - |
| 1777709917 | 18.89° C | 56% | 1023.8 hPa | 0 mm | - | - | - |
| 1777709557 | 20° C | 54% | 1023.8 hPa | 0 mm | - | - | - |
| 1777709197 | 19.44° C | 54% | 1023.8 hPa | 0 mm | - | - | - |
| 1777708837 | 20° C | 55% | 1023.9 hPa | 0 mm | - | - | - |
| 1777708477 | 19.44° C | 54% | 1023.9 hPa | 0 mm | - | - | - |
| 1777708117 | 18.89° C | 56% | 1024 hPa | 0 mm | - | - | - |
| 1777707757 | 18.33° C | 62% | 1024 hPa | 0 mm | - | - | - |
| 1777707397 | 18.89° C | 56% | 1024.1 hPa | 0 mm | - | - | - |
| 1777707037 | 18.33° C | 59% | 1024.1 hPa | 0 mm | - | - | - |
| 1777706677 | 17.78° C | 58% | 1024.3 hPa | 0 mm | - | - | - |
* Rain latest 24 hours (hover to see other rain measurements)
** Current wind speed in m/s (hover to see current wind gust speed)